sensor_id;sensor_type;location;lat;lon;timestamp;pressure;altitude;pressure_sealevel;temperature;humidity
71976;BME280;60680;52.182;5.398;2022-11-11T00:01:17;102793.22;;;10.50;89.23
71976;BME280;60680;52.182;5.398;2022-11-11T00:03:43;102787.22;;;10.45;89.38
71976;BME280;60680;52.182;5.398;2022-11-11T00:06:14;102782.09;;;10.42;90.12
71976;BME280;60680;52.182;5.398;2022-11-11T00:08:42;102794.22;;;10.41;89.33
71976;BME280;60680;52.182;5.398;2022-11-11T00:11:12;102806.41;;;10.39;90.54
71976;BME280;60680;52.182;5.398;2022-11-11T00:13:39;102800.41;;;10.35;90.38
71976;BME280;60680;52.182;5.398;2022-11-11T00:16:09;102809.09;;;10.36;89.74
71976;BME280;60680;52.182;5.398;2022-11-11T00:18:36;102808.22;;;10.35;89.57
71976;BME280;60680;52.182;5.398;2022-11-11T00:21:22;102809.97;;;10.35;90.07
71976;BME280;60680;52.182;5.398;2022-11-11T00:24:24;102799.56;;;10.35;89.67
71976;BME280;60680;52.182;5.398;2022-11-11T00:27:10;102800.47;;;10.32;90.27
71976;BME280;60680;52.182;5.398;2022-11-11T00:29:45;102810.00;;;10.33;90.28
71976;BME280;60680;52.182;5.398;2022-11-11T00:32:12;102803.91;;;10.34;91.00
71976;BME280;60680;52.182;5.398;2022-11-11T00:34:57;102803.88;;;10.36;90.67
71976;BME280;60680;52.182;5.398;2022-11-11T00:37:44;102803.03;;;10.35;90.82
71976;BME280;60680;52.182;5.398;2022-11-11T00:40:11;102797.81;;;10.35;90.33
71976;BME280;60680;52.182;5.398;2022-11-11T00:42:38;102803.88;;;10.36;90.52
71976;BME280;60680;52.182;5.398;2022-11-11T00:45:05;102806.47;;;10.37;91.00
71976;BME280;60680;52.182;5.398;2022-11-11T00:47:32;102799.47;;;10.39;91.16
71976;BME280;60680;52.182;5.398;2022-11-11T00:50:19;102800.31;;;10.42;91.02
71976;BME280;60680;52.182;5.398;2022-11-11T00:53:09;102798.56;;;10.42;90.22
71976;BME280;60680;52.182;5.398;2022-11-11T00:55:36;102794.22;;;10.43;90.45
71976;BME280;60680;52.182;5.398;2022-11-11T00:58:03;102787.22;;;10.45;90.68
71976;BME280;60680;52.182;5.398;2022-11-11T01:00:29;102794.22;;;10.43;91.05
71976;BME280;60680;52.182;5.398;2022-11-11T01:02:57;102781.19;;;10.44;90.71
71976;BME280;60680;52.182;5.398;2022-11-11T01:05:24;102775.13;;;10.44;90.72
71976;BME280;60680;52.182;5.398;2022-11-11T01:07:51;102778.59;;;10.43;91.19
71976;BME280;60680;52.182;5.398;2022-11-11T01:10:19;102784.66;;;10.43;90.66
71976;BME280;60680;52.182;5.398;2022-11-11T01:13:11;102787.25;;;10.43;91.45
71976;BME280;60680;52.182;5.398;2022-11-11T01:15:44;102791.59;;;10.44;90.70
71976;BME280;60680;52.182;5.398;2022-11-11T01:18:12;102794.22;;;10.43;91.02
71976;BME280;60680;52.182;5.398;2022-11-11T01:20:39;102793.34;;;10.44;90.83
71976;BME280;60680;52.182;5.398;2022-11-11T01:23:08;102797.66;;;10.45;91.14
71976;BME280;60680;52.182;5.398;2022-11-11T01:25:36;102789.84;;;10.45;90.85
71976;BME280;60680;52.182;5.398;2022-11-11T01:28:04;102782.88;;;10.45;91.13
71976;BME280;60680;52.182;5.398;2022-11-11T01:30:32;102784.63;;;10.45;90.65
71976;BME280;60680;52.182;5.398;2022-11-11T01:33:00;102772.47;;;10.45;91.08
71976;BME280;60680;52.182;5.398;2022-11-11T01:35:27;102780.25;;;10.47;90.80
71976;BME280;60680;52.182;5.398;2022-11-11T01:37:55;102779.38;;;10.48;90.57
71976;BME280;60680;52.182;5.398;2022-11-11T01:40:22;102782.00;;;10.48;91.36
71976;BME280;60680;52.182;5.398;2022-11-11T01:42:51;102787.22;;;10.46;91.42
71976;BME280;60680;52.182;5.398;2022-11-11T01:48:42;102812.31;;;10.49;90.60
71976;BME280;60680;52.182;5.398;2022-11-11T01:51:45;102819.19;;;10.53;90.96
71976;BME280;60680;52.182;5.398;2022-11-11T01:54:18;102808.78;;;10.51;90.96
71976;BME280;60680;52.182;5.398;2022-11-11T01:56:49;102809.66;;;10.52;91.38
71976;BME280;60680;52.182;5.398;2022-11-11T01:59:17;102804.50;;;10.50;90.88
71976;BME280;60680;52.182;5.398;2022-11-11T02:01:44;102804.50;;;10.50;91.21
71976;BME280;60680;52.182;5.398;2022-11-11T02:04:11;102810.56;;;10.51;91.32
71976;BME280;60680;52.182;5.398;2022-11-11T02:06:59;102798.44;;;10.50;91.26
71976;BME280;60680;52.182;5.398;2022-11-11T02:09:28;102811.41;;;10.51;91.30
71976;BME280;60680;52.182;5.398;2022-11-11T02:11:58;102793.22;;;10.50;90.47
71976;BME280;60680;52.182;5.398;2022-11-11T02:14:48;102802.81;;;10.48;90.92
71976;BME280;60680;52.182;5.398;2022-11-11T02:17:16;102795.00;;;10.48;91.01
71976;BME280;60680;52.182;5.398;2022-11-11T02:22:13;102787.19;;;10.48;91.01
71976;BME280;60680;52.182;5.398;2022-11-11T02:24:42;102786.31;;;10.47;90.88
71976;BME280;60680;52.182;5.398;2022-11-11T02:27:12;102785.47;;;10.47;91.03
71976;BME280;60680;52.182;5.398;2022-11-11T02:29:41;102792.41;;;10.46;90.64
71976;BME280;60680;52.182;5.398;2022-11-11T02:32:09;102799.38;;;10.46;90.95
71976;BME280;60680;52.182;5.398;2022-11-11T02:34:35;102789.81;;;10.46;91.20
71976;BME280;60680;52.182;5.398;2022-11-11T02:37:04;102780.28;;;10.45;90.61
71976;BME280;60680;52.182;5.398;2022-11-11T02:39:33;102786.41;;;10.43;91.32
71976;BME280;60680;52.182;5.398;2022-11-11T02:42:23;102788.16;;;10.42;90.71
71976;BME280;60680;52.182;5.398;2022-11-11T02:44:49;102787.31;;;10.42;90.59
71976;BME280;60680;52.182;5.398;2022-11-11T02:47:26;102791.63;;;10.41;90.98
71976;BME280;60680;52.182;5.398;2022-11-11T02:49:53;102790.78;;;10.40;91.08
71976;BME280;60680;52.182;5.398;2022-11-11T02:52:20;102787.31;;;10.40;91.21
71976;BME280;60680;52.182;5.398;2022-11-11T02:54:46;102786.47;;;10.39;91.35
71976;BME280;60680;52.182;5.398;2022-11-11T02:57:14;102794.28;;;10.38;91.02
71976;BME280;60680;52.182;5.398;2022-11-11T02:59:41;102789.97;;;10.37;91.44
71976;BME280;60680;52.182;5.398;2022-11-11T03:02:08;102798.66;;;10.37;91.13
71976;BME280;60680;52.182;5.398;2022-11-11T03:04:35;102799.53;;;10.36;90.76
71976;BME280;60680;52.182;5.398;2022-11-11T03:07:03;102802.13;;;10.36;90.85
71976;BME280;60680;52.182;5.398;2022-11-11T03:09:30;102803.88;;;10.36;91.31
71976;BME280;60680;52.182;5.398;2022-11-11T03:11:56;102801.28;;;10.36;90.94
71976;BME280;60680;52.182;5.398;2022-11-11T03:14:23;102799.56;;;10.35;91.23
71976;BME280;60680;52.182;5.398;2022-11-11T03:16:50;102814.31;;;10.34;91.24
71976;BME280;60680;52.182;5.398;2022-11-11T03:19:35;102808.25;;;10.34;90.92
71976;BME280;60680;52.182;5.398;2022-11-11T03:22:02;102815.22;;;10.33;91.36
71976;BME280;60680;52.182;5.398;2022-11-11T03:24:49;102818.72;;;10.31;91.42
71976;BME280;60680;52.182;5.398;2022-11-11T03:27:34;102820.44;;;10.32;91.15
71976;BME280;60680;52.182;5.398;2022-11-11T03:30:00;102821.31;;;10.31;91.28
71976;BME280;60680;52.182;5.398;2022-11-11T03:32:27;102826.47;;;10.32;91.10
71976;BME280;60680;52.182;5.398;2022-11-11T03:34:56;102819.56;;;10.31;91.51
71976;BME280;60680;52.182;5.398;2022-11-11T03:37:22;102817.88;;;10.27;91.58
71976;BME280;60680;52.182;5.398;2022-11-11T03:40:08;102819.56;;;10.28;91.08
71976;BME280;60680;52.182;5.398;2022-11-11T03:42:35;102826.53;;;10.28;91.11
71976;BME280;60680;52.182;5.398;2022-11-11T03:45:07;102825.69;;;10.27;91.38
71976;BME280;60680;52.182;5.398;2022-11-11T03:47:34;102832.63;;;10.27;91.03
71976;BME280;60680;52.182;5.398;2022-11-11T03:50:01;102832.63;;;10.27;91.33
71976;BME280;60680;52.182;5.398;2022-11-11T03:52:28;102837.88;;;10.25;91.29
71976;BME280;60680;52.182;5.398;2022-11-11T03:54:54;102831.75;;;10.26;91.27
71976;BME280;60680;52.182;5.398;2022-11-11T03:57:21;102832.69;;;10.24;91.99
71976;BME280;60680;52.182;5.398;2022-11-11T03:59:56;102841.28;;;10.27;91.35
71976;BME280;60680;52.182;5.398;2022-11-11T04:02:25;102838.72;;;10.26;91.72
71976;BME280;60680;52.182;5.398;2022-11-11T04:05:25;102843.03;;;10.27;91.55
71976;BME280;60680;52.182;5.398;2022-11-11T04:08:12;102845.66;;;10.25;91.64
71976;BME280;60680;52.182;5.398;2022-11-11T04:11:10;102844.75;;;10.28;91.67
71976;BME280;60680;52.182;5.398;2022-11-11T04:13:39;102836.09;;;10.27;91.10
71976;BME280;60680;52.182;5.398;2022-11-11T04:16:26;102840.41;;;10.28;91.53
71976;BME280;60680;52.182;5.398;2022-11-11T04:18:52;102830.91;;;10.26;91.78
71976;BME280;60680;52.182;5.398;2022-11-11T04:21:37;102834.41;;;10.23;91.90
71976;BME280;60680;52.182;5.398;2022-11-11T04:24:17;102830.06;;;10.24;91.90
71976;BME280;60680;52.182;5.398;2022-11-11T04:27:11;102831.81;;;10.25;91.13
71976;BME280;60680;52.182;5.398;2022-11-11T04:29:38;102823.19;;;10.21;91.44
71976;BME280;60680;52.182;5.398;2022-11-11T04:32:09;102824.03;;;10.23;91.63
71976;BME280;60680;52.182;5.398;2022-11-11T04:34:59;102828.38;;;10.23;91.76
71976;BME280;60680;52.182;5.398;2022-11-11T04:37:36;102819.72;;;10.20;91.25
71976;BME280;60680;52.182;5.398;2022-11-11T04:40:09;102815.44;;;10.18;91.62
71976;BME280;60680;52.182;5.398;2022-11-11T04:42:55;102806.81;;;10.16;91.83
71976;BME280;60680;52.182;5.398;2022-11-11T04:45:21;102798.13;;;10.15;91.77
71976;BME280;60680;52.182;5.398;2022-11-11T04:48:05;102794.66;;;10.15;91.66
71976;BME280;60680;52.182;5.398;2022-11-11T04:50:34;102797.34;;;10.10;91.50
71976;BME280;60680;52.182;5.398;2022-11-11T04:53:06;102788.72;;;10.07;91.54
71976;BME280;60680;52.182;5.398;2022-11-11T04:55:36;102791.41;;;10.02;91.98
71976;BME280;60680;52.182;5.398;2022-11-11T04:58:23;102794.94;;;9.99;92.09
71976;BME280;60680;52.182;5.398;2022-11-11T05:00:50;102791.50;;;9.97;91.63
71976;BME280;60680;52.182;5.398;2022-11-11T05:03:19;102788.06;;;9.95;92.25
71976;BME280;60680;52.182;5.398;2022-11-11T05:05:54;102788.06;;;9.95;91.94
71976;BME280;60680;52.182;5.398;2022-11-11T05:08:47;102788.97;;;9.93;91.92
71976;BME280;60680;52.182;5.398;2022-11-11T05:11:29;102781.22;;;9.90;92.67
71976;BME280;60680;52.182;5.398;2022-11-11T05:13:58;102786.47;;;9.88;92.30
71976;BME280;60680;52.182;5.398;2022-11-11T05:16:46;102777.75;;;9.89;92.96
71976;BME280;60680;52.182;5.398;2022-11-11T05:19:34;102778.66;;;9.88;92.12
71976;BME280;60680;52.182;5.398;2022-11-11T05:22:25;102782.94;;;9.91;91.90
71976;BME280;60680;52.182;5.398;2022-11-11T05:24:53;102789.94;;;9.87;92.43
71976;BME280;60680;52.182;5.398;2022-11-11T05:27:38;102801.16;;;9.89;92.72
71976;BME280;60680;52.182;5.398;2022-11-11T05:30:06;102795.97;;;9.89;92.13
71976;BME280;60680;52.182;5.398;2022-11-11T05:32:39;102791.66;;;9.88;92.30
71976;BME280;60680;52.182;5.398;2022-11-11T05:35:07;102792.50;;;9.89;92.35
71976;BME280;60680;52.182;5.398;2022-11-11T05:37:34;102781.25;;;9.88;92.01
71976;BME280;60680;52.182;5.398;2022-11-11T05:40:01;102798.56;;;9.89;92.53
71976;BME280;60680;52.182;5.398;2022-11-11T05:42:27;102797.72;;;9.89;91.89
71976;BME280;60680;52.182;5.398;2022-11-11T05:44:54;102804.66;;;9.88;92.27
71976;BME280;60680;52.182;5.398;2022-11-11T05:47:21;102806.38;;;9.88;92.53
71976;BME280;60680;52.182;5.398;2022-11-11T05:49:48;102803.78;;;9.88;91.83
71976;BME280;60680;52.182;5.398;2022-11-11T05:52:18;102811.63;;;9.86;91.84
71976;BME280;60680;52.182;5.398;2022-11-11T05:54:45;102809.91;;;9.84;92.01
71976;BME280;60680;52.182;5.398;2022-11-11T05:57:11;102805.59;;;9.83;92.63
71976;BME280;60680;52.182;5.398;2022-11-11T05:59:38;102816.03;;;9.81;91.87
71976;BME280;60680;52.182;5.398;2022-11-11T06:02:04;102805.63;;;9.81;91.99
71976;BME280;60680;52.182;5.398;2022-11-11T06:04:34;102809.97;;;9.79;91.88
71976;BME280;60680;52.182;5.398;2022-11-11T06:07:01;102810.91;;;9.76;92.46
71976;BME280;60680;52.182;5.398;2022-11-11T06:09:28;102818.69;;;9.76;92.03
71976;BME280;60680;52.182;5.398;2022-11-11T06:11:57;102819.59;;;9.75;92.36
71976;BME280;60680;52.182;5.398;2022-11-11T06:14:24;102820.47;;;9.74;92.43
71976;BME280;60680;52.182;5.398;2022-11-11T06:16:50;102825.72;;;9.70;92.57
71976;BME280;60680;52.182;5.398;2022-11-11T06:19:17;102833.56;;;9.67;92.08
71976;BME280;60680;52.182;5.398;2022-11-11T06:21:43;102840.50;;;9.68;91.84
71976;BME280;60680;52.182;5.398;2022-11-11T06:24:22;102843.94;;;9.67;93.04
71976;BME280;60680;52.182;5.398;2022-11-11T06:26:53;102846.56;;;9.67;92.24
71976;BME280;60680;52.182;5.398;2022-11-11T06:29:23;102848.28;;;9.68;91.82
71976;BME280;60680;52.182;5.398;2022-11-11T06:31:49;102858.66;;;9.69;92.81
71976;BME280;60680;52.182;5.398;2022-11-11T06:34:16;102862.97;;;9.72;92.41
71976;BME280;60680;52.182;5.398;2022-11-11T06:36:45;102873.38;;;9.72;91.88
71976;BME280;60680;52.182;5.398;2022-11-11T06:39:11;102882.88;;;9.73;92.30
71976;BME280;60680;52.182;5.398;2022-11-11T06:41:38;102883.69;;;9.75;92.09
71976;BME280;60680;52.182;5.398;2022-11-11T06:44:04;102888.91;;;9.75;91.77
71976;BME280;60680;52.182;5.398;2022-11-11T06:46:31;102890.66;;;9.74;92.04
71976;BME280;60680;52.182;5.398;2022-11-11T06:48:57;102893.25;;;9.73;91.95
71976;BME280;60680;52.182;5.398;2022-11-11T06:51:24;102888.91;;;9.75;91.82
71976;BME280;60680;52.182;5.398;2022-11-11T06:53:50;102891.50;;;9.76;91.96
71976;BME280;60680;52.182;5.398;2022-11-11T06:56:17;102901.03;;;9.76;91.91
71976;BME280;60680;52.182;5.398;2022-11-11T06:58:43;102897.53;;;9.77;91.33
71976;BME280;60680;52.182;5.398;2022-11-11T07:01:11;102902.75;;;9.77;91.60
71976;BME280;60680;52.182;5.398;2022-11-11T07:03:38;102898.44;;;9.76;91.25
71976;BME280;60680;52.182;5.398;2022-11-11T07:06:05;102898.44;;;9.74;91.85
71976;BME280;60680;52.182;5.398;2022-11-11T07:08:32;102901.91;;;9.75;92.00
71976;BME280;60680;52.182;5.398;2022-11-11T07:10:59;102906.25;;;9.76;91.60
71976;BME280;60680;52.182;5.398;2022-11-11T07:13:34;102906.25;;;9.76;92.13
71976;BME280;60680;52.182;5.398;2022-11-11T07:16:01;102902.78;;;9.75;91.79
71976;BME280;60680;52.182;5.398;2022-11-11T07:18:27;102903.63;;;9.76;91.26
71976;BME280;60680;52.182;5.398;2022-11-11T07:20:54;102910.59;;;9.75;91.95
71976;BME280;60680;52.182;5.398;2022-11-11T07:23:21;102913.19;;;9.75;91.90
71976;BME280;60680;52.182;5.398;2022-11-11T07:25:47;102918.38;;;9.75;91.63
71976;BME280;60680;52.182;5.398;2022-11-11T07:28:17;102914.88;;;9.76;91.89
71976;BME280;60680;52.182;5.398;2022-11-11T07:30:43;102923.53;;;9.78;91.56
71976;BME280;60680;52.182;5.398;2022-11-11T07:33:10;102929.59;;;9.77;91.69
71976;BME280;60680;52.182;5.398;2022-11-11T07:35:36;102934.84;;;9.76;91.59
71976;BME280;60680;52.182;5.398;2022-11-11T07:38:05;102926.16;;;9.77;91.59
71976;BME280;60680;52.182;5.398;2022-11-11T07:40:32;102920.94;;;9.78;90.99
71976;BME280;60680;52.182;5.398;2022-11-11T07:42:58;102919.19;;;9.77;91.66
71976;BME280;60680;52.182;5.398;2022-11-11T07:45:24;102919.19;;;9.79;91.65
71976;BME280;60680;52.182;5.398;2022-11-11T07:47:51;102925.28;;;9.78;91.29
71976;BME280;60680;52.182;5.398;2022-11-11T07:50:20;102924.38;;;9.79;91.08
71976;BME280;60680;52.182;5.398;2022-11-11T07:52:48;102925.31;;;9.75;91.50
71976;BME280;60680;52.182;5.398;2022-11-11T07:55:14;102933.09;;;9.75;91.18
71976;BME280;60680;52.182;5.398;2022-11-11T07:57:41;102927.91;;;9.76;91.00
71976;BME280;60680;52.182;5.398;2022-11-11T08:00:08;102936.59;;;9.75;91.16
71976;BME280;60680;52.182;5.398;2022-11-11T08:02:35;102932.25;;;9.73;90.71
71976;BME280;60680;52.182;5.398;2022-11-11T08:05:01;102934.84;;;9.74;91.65
71976;BME280;60680;52.182;5.398;2022-11-11T08:07:28;102927.94;;;9.73;90.79
71976;BME280;60680;52.182;5.398;2022-11-11T08:09:54;102940.06;;;9.74;91.18
71976;BME280;60680;52.182;5.398;2022-11-11T08:12:22;102936.59;;;9.72;91.03
71976;BME280;60680;52.182;5.398;2022-11-11T08:15:07;102937.50;;;9.71;91.05
71976;BME280;60680;52.182;5.398;2022-11-11T08:17:38;102944.41;;;9.74;90.92
71976;BME280;60680;52.182;5.398;2022-11-11T08:20:08;102950.44;;;9.74;90.96
71976;BME280;60680;52.182;5.398;2022-11-11T08:22:40;102950.44;;;9.76;90.70
71976;BME280;60680;52.182;5.398;2022-11-11T08:25:13;102959.94;;;9.77;91.27
71976;BME280;60680;52.182;5.398;2022-11-11T08:27:40;102949.53;;;9.77;90.27
71976;BME280;60680;52.182;5.398;2022-11-11T08:30:08;102959.03;;;9.81;90.79
71976;BME280;60680;52.182;5.398;2022-11-11T08:32:34;102956.47;;;9.78;90.86
71976;BME280;60680;52.182;5.398;2022-11-11T08:35:01;102948.63;;;9.79;90.38
71976;BME280;60680;52.182;5.398;2022-11-11T08:37:28;102946.88;;;9.82;90.04
71976;BME280;60680;52.182;5.398;2022-11-11T08:39:54;102952.06;;;9.83;90.53
71976;BME280;60680;52.182;5.398;2022-11-11T08:42:21;102950.31;;;9.85;90.18
71976;BME280;60680;52.182;5.398;2022-11-11T08:44:47;102941.59;;;9.89;90.26
71976;BME280;60680;52.182;5.398;2022-11-11T08:47:14;102962.34;;;9.92;90.23
71976;BME280;60680;52.182;5.398;2022-11-11T08:49:40;102964.13;;;9.90;90.00
71976;BME280;60680;52.182;5.398;2022-11-11T08:52:07;102974.53;;;9.89;90.28
71976;BME280;60680;52.182;5.398;2022-11-11T08:54:34;102973.66;;;9.90;89.78
71976;BME280;60680;52.182;5.398;2022-11-11T08:57:00;102974.53;;;9.89;89.43
71976;BME280;60680;52.182;5.398;2022-11-11T08:59:26;102969.31;;;9.90;89.75
71976;BME280;60680;52.182;5.398;2022-11-11T09:01:53;102978.78;;;9.94;89.87
71976;BME280;60680;52.182;5.398;2022-11-11T09:04:19;102978.69;;;10.00;89.55
71976;BME280;60680;52.182;5.398;2022-11-11T09:07:07;102973.47;;;10.05;89.39
71976;BME280;60680;52.182;5.398;2022-11-11T09:09:34;102973.41;;;10.08;90.02
71976;BME280;60680;52.182;5.398;2022-11-11T09:12:01;102972.56;;;10.05;89.12
71976;BME280;60680;52.182;5.398;2022-11-11T09:14:27;102980.44;;;10.03;89.82
71976;BME280;60680;52.182;5.398;2022-11-11T09:16:54;102986.47;;;10.04;89.40
71976;BME280;60680;52.182;5.398;2022-11-11T09:19:20;102995.19;;;10.01;89.59
71976;BME280;60680;52.182;5.398;2022-11-11T09:21:47;102987.34;;;10.03;89.76
71976;BME280;60680;52.182;5.398;2022-11-11T09:24:13;102992.47;;;10.10;90.30
71976;BME280;60680;52.182;5.398;2022-11-11T09:26:40;103002.84;;;10.12;89.78
71976;BME280;60680;52.182;5.398;2022-11-11T09:29:06;103001.97;;;10.11;89.70
71976;BME280;60680;52.182;5.398;2022-11-11T09:31:32;103003.69;;;10.12;89.21
71976;BME280;60680;52.182;5.398;2022-11-11T09:34:14;103007.97;;;10.16;89.45
71976;BME280;60680;52.182;5.398;2022-11-11T09:36:41;103016.56;;;10.21;89.84
71976;BME280;60680;52.182;5.398;2022-11-11T09:39:08;103015.72;;;10.23;89.51
71976;BME280;60680;52.182;5.398;2022-11-11T09:50:17;103014.81;;;10.24;89.31
71976;BME280;60680;52.182;5.398;2022-11-11T09:52:59;103011.34;;;10.25;89.21
71976;BME280;60680;52.182;5.398;2022-11-11T09:55:34;103014.75;;;10.28;89.53
71976;BME280;60680;52.182;5.398;2022-11-11T09:58:11;103024.19;;;10.37;89.09
71976;BME280;60680;52.182;5.398;2022-11-11T10:00:41;103025.03;;;10.39;89.49
71976;BME280;60680;52.182;5.398;2022-11-11T10:03:13;103013.75;;;10.38;89.33
71976;BME280;60680;52.182;5.398;2022-11-11T10:05:51;103014.56;;;10.44;89.32
71976;BME280;60680;52.182;5.398;2022-11-11T10:08:33;103029.28;;;10.46;88.17
71976;BME280;60680;52.182;5.398;2022-11-11T10:11:02;103027.53;;;10.47;89.05
71976;BME280;60680;52.182;5.398;2022-11-11T10:13:35;103025.81;;;10.46;88.36
71976;BME280;60680;52.182;5.398;2022-11-11T10:16:14;103025.78;;;10.47;88.79
71976;BME280;60680;52.182;5.398;2022-11-11T10:21:56;103025.69;;;10.55;88.77
71976;BME280;60680;52.182;5.398;2022-11-11T10:24:41;103035.94;;;10.64;88.41
71976;BME280;60680;52.182;5.398;2022-11-11T10:27:19;103045.41;;;10.70;88.54
71976;BME280;60680;52.182;5.398;2022-11-11T10:29:46;103038.44;;;10.72;87.58
71976;BME280;60680;52.182;5.398;2022-11-11T10:32:21;103043.59;;;10.75;88.24
71976;BME280;60680;52.182;5.398;2022-11-11T10:34:48;103046.25;;;10.72;87.57
71976;BME280;60680;52.182;5.398;2022-11-11T10:37:19;103047.97;;;10.73;87.85
71976;BME280;60680;52.182;5.398;2022-11-11T10:40:24;103047.94;;;10.74;87.69
71976;BME280;60680;52.182;5.398;2022-11-11T10:42:54;103052.16;;;10.81;87.29
71976;BME280;60680;52.182;5.398;2022-11-11T10:45:28;103053.84;;;10.86;87.41
71976;BME280;60680;52.182;5.398;2022-11-11T10:48:02;103053.81;;;10.89;87.25
71976;BME280;60680;52.182;5.398;2022-11-11T10:53:21;103054.66;;;10.89;87.17
71976;BME280;60680;52.182;5.398;2022-11-11T10:56:17;103053.75;;;10.92;87.00
71976;BME280;60680;52.182;5.398;2022-11-11T10:59:11;103052.78;;;10.97;87.07
71976;BME280;60680;52.182;5.398;2022-11-11T11:01:52;103052.72;;;11.00;87.39
71976;BME280;60680;52.182;5.398;2022-11-11T11:04:27;103042.16;;;11.10;87.05
71976;BME280;60680;52.182;5.398;2022-11-11T11:06:58;103049.63;;;11.30;86.66
71976;BME280;60680;52.182;5.398;2022-11-11T11:09:30;103042.41;;;11.46;86.08
71976;BME280;60680;52.182;5.398;2022-11-11T11:12:06;103032.63;;;11.55;85.36
71976;BME280;60680;52.182;5.398;2022-11-11T11:14:43;103031.56;;;11.66;85.41
71976;BME280;60680;52.182;5.398;2022-11-11T11:17:15;103037.81;;;11.58;85.50
71976;BME280;60680;52.182;5.398;2022-11-11T11:19:42;103021.38;;;11.53;84.43
71976;BME280;60680;52.182;5.398;2022-11-11T11:22:08;103024.81;;;11.55;85.35
71976;BME280;60680;52.182;5.398;2022-11-11T11:24:36;103023.81;;;11.62;85.01
71976;BME280;60680;52.182;5.398;2022-11-11T11:27:08;103028.03;;;11.70;84.57
71976;BME280;60680;52.182;5.398;2022-11-11T11:29:43;103024.47;;;11.74;85.05
71976;BME280;60680;52.182;5.398;2022-11-11T11:32:14;103027.91;;;11.76;84.81
71976;BME280;60680;52.182;5.398;2022-11-11T11:37:08;103030.75;;;11.63;83.97
71976;BME280;60680;52.182;5.398;2022-11-11T11:39:37;103028.13;;;11.63;84.94
71976;BME280;60680;52.182;5.398;2022-11-11T11:42:05;103022.81;;;11.68;84.00
71976;BME280;60680;52.182;5.398;2022-11-11T11:44:33;103020.22;;;11.68;84.79
71976;BME280;60680;52.182;5.398;2022-11-11T11:55:43;103011.00;;;11.95;83.82
71976;BME280;60680;52.182;5.398;2022-11-11T11:58:34;103014.41;;;11.99;82.58
71976;BME280;60680;52.182;5.398;2022-11-11T12:06:41;103007.34;;;12.02;82.38
71976;BME280;60680;52.182;5.398;2022-11-11T12:09:17;103013.72;;;11.88;82.93
71976;BME280;60680;52.182;5.398;2022-11-11T12:12:38;103014.72;;;11.82;83.19
71976;BME280;60680;52.182;5.398;2022-11-11T12:20:21;103007.84;;;11.79;83.99
71976;BME280;60680;52.182;5.398;2022-11-11T12:23:13;103008.69;;;11.80;83.23
71976;BME280;60680;52.182;5.398;2022-11-11T12:25:55;103001.00;;;11.74;83.48
71976;BME280;60680;52.182;5.398;2022-11-11T12:31:24;103001.97;;;11.67;83.79
71976;BME280;60680;52.182;5.398;2022-11-11T12:34:11;103001.22;;;11.61;83.90
71976;BME280;60680;52.182;5.398;2022-11-11T12:37:00;103005.50;;;11.64;83.81
71976;BME280;60680;52.182;5.398;2022-11-11T12:39:41;103002.88;;;11.67;83.72
71976;BME280;60680;52.182;5.398;2022-11-11T12:44:58;103005.34;;;11.73;83.23
71976;BME280;60680;52.182;5.398;2022-11-11T12:47:37;103007.00;;;11.77;83.25
71976;BME280;60680;52.182;5.398;2022-11-11T12:55:37;102997.09;;;11.95;83.82
71976;BME280;60680;52.182;5.398;2022-11-11T13:01:18;103003.03;;;12.01;82.45
71976;BME280;60680;52.182;5.398;2022-11-11T13:04:02;102993.47;;;12.02;82.32
71976;BME280;60680;52.182;5.398;2022-11-11T13:09:46;102994.38;;;11.99;83.38
71976;BME280;60680;52.182;5.398;2022-11-11T13:13:10;102990.03;;;12.00;
71976;BME280;60680;52.182;5.398;2022-11-11T13:15:20;102997.84;;;12.00;82.34
71976;BME280;60680;52.182;5.398;2022-11-11T13:17:47;102996.19;;;11.97;81.85
71976;BME280;60680;52.182;5.398;2022-11-11T13:20:42;102990.03;;;12.00;82.36
71976;BME280;60680;52.182;5.398;2022-11-11T13:23:10;102990.94;;;11.97;81.67
71976;BME280;60680;52.182;5.398;2022-11-11T13:25:42;102990.94;;;11.97;82.25
71976;BME280;60680;52.182;5.398;2022-11-11T13:31:11;102988.38;;;11.96;82.98
71976;BME280;60680;52.182;5.398;2022-11-11T13:33:43;102988.38;;;11.96;82.40
71976;BME280;60680;52.182;5.398;2022-11-11T13:36:15;102991.81;;;11.98;83.11
71976;BME280;60680;52.182;5.398;2022-11-11T13:38:54;102990.84;;;12.02;83.19
71976;BME280;60680;52.182;5.398;2022-11-11T13:41:28;102989.91;;;12.04;82.66
71976;BME280;60680;52.182;5.398;2022-11-11T13:44:01;102996.00;;;12.05;82.84
71976;BME280;60680;52.182;5.398;2022-11-11T13:46:38;102995.97;;;12.07;82.40
71976;BME280;60680;52.182;5.398;2022-11-11T13:49:28;102995.94;;;12.08;82.62
71976;BME280;60680;52.182;5.398;2022-11-11T13:52:04;102995.91;;;12.10;82.45
71976;BME280;60680;52.182;5.398;2022-11-11T13:54:34;102983.75;;;12.09;82.58
71976;BME280;60680;52.182;5.398;2022-11-11T13:57:05;102988.97;;;12.09;82.65
71976;BME280;60680;52.182;5.398;2022-11-11T13:59:40;102984.66;;;12.08;82.50
71976;BME280;60680;52.182;5.398;2022-11-11T14:07:48;102981.09;;;12.10;82.51
71976;BME280;60680;52.182;5.398;2022-11-11T14:12:52;102977.59;;;12.11;82.20
71976;BME280;60680;52.182;5.398;2022-11-11T14:20:49;102979.28;;;12.14;82.29
71976;BME280;60680;52.182;5.398;2022-11-11T14:23:34;102980.16;;;12.14;82.18
71976;BME280;60680;52.182;5.398;2022-11-11T14:33:56;102986.22;;;12.15;82.58
71976;BME280;60680;52.182;5.398;2022-11-11T14:36:40;102982.78;;;12.13;82.25
71976;BME280;60680;52.182;5.398;2022-11-11T14:39:42;102979.31;;;12.12;82.98
71976;BME280;60680;52.182;5.398;2022-11-11T14:44:59;102976.81;;;12.08;82.68
71976;BME280;60680;52.182;5.398;2022-11-11T14:47:36;102991.56;;;12.09;82.85